Time;durP1;ratioP1;P1;durP2;ratioP2;P2;SDS_P1;SDS_P2;PMS_P1;PMS_P2;Temp;Humidity;BMP_temperature;BMP_pressure;BME280_temperature;BME280_humidity;BME280_pressure;Samples;Min_cycle;Max_cycle;Signal;HPM_P1;HPM_P2
2021/08/15 00:01:31;;;;;;;15.30;10.70;;;;;;;;;;753181;184;919289;-65
2021/08/15 00:03:57;;;;;;;16.67;11.47;;;;;;;;;;750347;182;1326359;-65
2021/08/15 00:06:23;;;;;;;25.70;10.73;;;;;;;;;;752635;183;918917;-65
2021/08/15 00:08:49;;;;;;;16.00;13.03;;;;;;;;;;753968;184;918751;-64
2021/08/15 00:11:15;;;;;;;22.70;14.97;;;;;;;;;;756727;183;918823;-65
2021/08/15 00:13:41;;;;;;;18.30;12.10;;;;;;;;;;764811;183;919109;-65
2021/08/15 00:16:07;;;;;;;16.13;11.37;;;;;;;;;;759084;184;918099;-66
2021/08/15 00:18:35;;;;;;;14.50;11.67;;;;;;;;;;756112;183;919012;-65
2021/08/15 00:20:58;;;;;;;23.83;13.17;;;;;;;;;;759406;184;918507;-67
2021/08/15 00:23:24;;;;;;;24.40;12.90;;;;;;;;;;755283;183;918789;-65
2021/08/15 00:25:50;;;;;;;15.50;12.77;;;;;;;;;;754872;183;919655;-65
2021/08/15 00:28:16;;;;;;;19.08;12.98;;;;;;;;;;758804;184;918662;-65
2021/08/15 00:30:42;;;;;;;16.93;12.73;;;;;;;;;;763309;182;919022;-65
2021/08/15 00:33:08;;;;;;;18.13;11.50;;;;;;;;;;754228;183;919275;-65
2021/08/15 00:35:34;;;;;;;19.02;12.80;;;;;;;;;;754019;184;921204;-65
2021/08/15 00:38:00;;;;;;;19.50;11.97;;;;;;;;;;764242;183;919832;-65
2021/08/15 00:40:26;;;;;;;13.70;11.70;;;;;;;;;;755845;184;919283;-65
2021/08/15 00:42:51;;;;;;;15.43;12.70;;;;;;;;;;754605;184;919076;-64
2021/08/15 00:45:17;;;;;;;16.17;12.30;;;;;;;;;;759090;183;918298;-64
2021/08/15 00:47:43;;;;;;;21.27;11.77;;;;;;;;;;753615;181;919800;-64
2021/08/15 00:50:09;;;;;;;19.20;11.77;;;;;;;;;;754312;182;918818;-64
2021/08/15 00:52:35;;;;;;;20.20;11.53;;;;;;;;;;759036;184;919084;-65
2021/08/15 00:55:01;;;;;;;16.97;12.13;;;;;;;;;;755147;184;919545;-64
2021/08/15 00:57:27;;;;;;;24.20;11.83;;;;;;;;;;753534;184;918361;-64
2021/08/15 00:59:53;;;;;;;20.97;12.27;;;;;;;;;;752436;182;918770;-64
2021/08/15 01:02:19;;;;;;;20.00;11.50;;;;;;;;;;760041;184;918662;-64
2021/08/15 01:04:45;;;;;;;24.80;13.40;;;;;;;;;;754568;184;918749;-64
2021/08/15 01:07:10;;;;;;;14.50;12.03;;;;;;;;;;754905;184;919365;-65
2021/08/15 01:09:36;;;;;;;21.80;13.80;;;;;;;;;;761576;184;919514;-64
2021/08/15 01:12:02;;;;;;;17.53;12.50;;;;;;;;;;754306;184;918778;-64
2021/08/15 01:14:28;;;;;;;17.43;12.63;;;;;;;;;;753304;181;919500;-64
2021/08/15 01:16:54;;;;;;;13.33;11.10;;;;;;;;;;758846;184;918379;-65
2021/08/15 01:19:20;;;;;;;13.87;10.97;;;;;;;;;;754649;184;919248;-64
2021/08/15 01:21:46;;;;;;;15.27;11.90;;;;;;;;;;752821;181;919018;-64
2021/08/15 01:24:13;;;;;;;16.57;11.50;;;;;;;;;;755587;184;918755;-65
2021/08/15 01:26:39;;;;;;;18.87;13.17;;;;;;;;;;761432;183;942811;-65
2021/08/15 01:29:05;;;;;;;16.97;10.90;;;;;;;;;;757817;183;918581;-64
2021/08/15 01:31:30;;;;;;;16.40;10.27;;;;;;;;;;755316;185;919740;-65
2021/08/15 01:33:56;;;;;;;13.77;9.47;;;;;;;;;;753942;184;920724;-65
2021/08/15 01:36:22;;;;;;;18.07;11.00;;;;;;;;;;756426;183;916702;-65
2021/08/15 01:38:48;;;;;;;21.70;11.57;;;;;;;;;;755983;184;914211;-64
2021/08/15 01:41:14;;;;;;;18.60;10.93;;;;;;;;;;758591;182;915000;-65
2021/08/15 01:43:54;;;;;;;19.77;13.63;;;;;;;;;;753468;184;915229;-65
2021/08/15 01:46:20;;;;;;;19.60;13.07;;;;;;;;;;753257;184;915792;-66
2021/08/15 01:48:46;;;;;;;19.70;12.47;;;;;;;;;;752051;183;919927;-66
2021/08/15 01:51:12;;;;;;;14.70;11.77;;;;;;;;;;759383;181;918878;-66
2021/08/15 01:53:37;;;;;;;17.17;12.77;;;;;;;;;;757738;181;937318;-66
2021/08/15 01:56:03;;;;;;;31.10;15.20;;;;;;;;;;756354;183;921313;-66
2021/08/15 01:58:29;;;;;;;25.13;13.63;;;;;;;;;;753006;184;919755;-66
2021/08/15 02:00:55;;;;;;;18.87;12.30;;;;;;;;;;758791;184;918262;-65
2021/08/15 02:03:21;;;;;;;22.33;14.37;;;;;;;;;;756106;184;919056;-65
2021/08/15 02:05:47;;;;;;;17.50;11.10;;;;;;;;;;755472;184;921405;-65
2021/08/15 02:08:13;;;;;;;15.83;12.03;;;;;;;;;;758401;184;932520;-65
2021/08/15 02:10:38;;;;;;;15.90;12.33;;;;;;;;;;755289;184;921647;-66
2021/08/15 02:13:04;;;;;;;14.27;10.70;;;;;;;;;;749715;184;918910;-65
2021/08/15 02:15:31;;;;;;;19.07;12.20;;;;;;;;;;755896;184;914813;-67
2021/08/15 02:17:58;;;;;;;15.60;10.97;;;;;;;;;;754775;184;936953;-65
2021/08/15 02:20:22;;;;;;;17.67;12.33;;;;;;;;;;755768;184;914115;-66
2021/08/15 02:22:48;;;;;;;16.53;11.63;;;;;;;;;;754589;182;918974;-65
2021/08/15 02:25:13;;;;;;;15.33;11.50;;;;;;;;;;757463;183;912758;-66
2021/08/15 02:27:39;;;;;;;26.87;13.35;;;;;;;;;;752225;183;914084;-66
2021/08/15 02:30:06;;;;;;;24.87;12.90;;;;;;;;;;752938;183;913457;-65
2021/08/15 02:32:32;;;;;;;19.60;12.80;;;;;;;;;;758489;184;919848;-65
2021/08/15 02:34:58;;;;;;;22.43;11.93;;;;;;;;;;755710;183;917380;-66
2021/08/15 02:37:23;;;;;;;14.80;11.97;;;;;;;;;;756971;183;918353;-65
2021/08/15 02:39:49;;;;;;;17.40;10.80;;;;;;;;;;759824;184;920090;-65
2021/08/15 02:42:15;;;;;;;27.00;14.03;;;;;;;;;;756657;183;917419;-65
2021/08/15 02:44:42;;;;;;;15.73;11.50;;;;;;;;;;757268;181;918415;-65
2021/08/15 02:47:07;;;;;;;14.17;11.13;;;;;;;;;;754510;184;915912;-65
2021/08/15 02:49:33;;;;;;;28.07;15.50;;;;;;;;;;760762;181;915055;-66
2021/08/15 02:51:59;;;;;;;23.53;14.30;;;;;;;;;;753884;184;915741;-66
2021/08/15 02:54:25;;;;;;;22.20;13.37;;;;;;;;;;753937;184;921469;-66
2021/08/15 02:56:51;;;;;;;22.43;13.43;;;;;;;;;;761726;183;926478;-66
2021/08/15 02:59:16;;;;;;;20.35;13.05;;;;;;;;;;754604;184;916098;-65
2021/08/15 03:01:42;;;;;;;26.50;13.80;;;;;;;;;;754884;183;916103;-68
2021/08/15 03:04:08;;;;;;;17.10;11.30;;;;;;;;;;759297;183;916299;-66
2021/08/15 03:06:34;;;;;;;22.53;12.90;;;;;;;;;;754859;183;945471;-65
2021/08/15 03:09:00;;;;;;;16.50;13.02;;;;;;;;;;754065;183;1017164;-65
2021/08/15 03:11:26;;;;;;;17.10;12.20;;;;;;;;;;758247;184;915552;-65
2021/08/15 03:13:52;;;;;;;16.23;12.37;;;;;;;;;;755765;184;916187;-65
2021/08/15 03:16:18;;;;;;;18.20;13.60;;;;;;;;;;752653;184;915879;-65
2021/08/15 03:18:44;;;;;;;18.27;12.87;;;;;;;;;;754921;183;919448;-66
2021/08/15 03:21:10;;;;;;;26.33;12.43;;;;;;;;;;759700;181;918942;-66
2021/08/15 03:23:35;;;;;;;15.50;11.83;;;;;;;;;;754482;184;919592;-65
2021/08/15 03:26:01;;;;;;;21.67;12.40;;;;;;;;;;755193;184;919348;-66
2021/08/15 03:28:27;;;;;;;25.20;13.90;;;;;;;;;;762145;184;618752;-67
2021/08/15 03:30:53;;;;;;;20.73;12.10;;;;;;;;;;758531;185;628274;-65
2021/08/15 03:33:19;;;;;;;20.90;12.83;;;;;;;;;;745452;185;919278;-65
2021/08/15 03:35:45;;;;;;;20.23;13.93;;;;;;;;;;757821;184;918596;-66
2021/08/15 03:38:10;;;;;;;23.70;16.03;;;;;;;;;;752378;183;919090;-66
2021/08/15 03:40:36;;;;;;;23.45;15.65;;;;;;;;;;751983;184;1421971;-64
2021/08/15 03:43:02;;;;;;;29.70;16.40;;;;;;;;;;755381;181;918963;-65
2021/08/15 03:45:28;;;;;;;27.27;18.30;;;;;;;;;;757561;183;918904;-64
2021/08/15 03:47:54;;;;;;;33.10;18.20;;;;;;;;;;755441;184;919617;-65
2021/08/15 03:50:20;;;;;;;21.90;16.50;;;;;;;;;;755867;183;918236;-66
2021/08/15 03:52:45;;;;;;;27.27;18.80;;;;;;;;;;761274;181;918970;-65
2021/08/15 03:55:11;;;;;;;31.23;18.73;;;;;;;;;;758662;183;919069;-65
2021/08/15 03:57:37;;;;;;;29.73;20.00;;;;;;;;;;756732;183;920968;-66
2021/08/15 04:00:04;;;;;;;28.03;18.67;;;;;;;;;;760023;183;920460;-66
2021/08/15 04:02:29;;;;;;;29.77;17.87;;;;;;;;;;757116;183;918032;-65
2021/08/15 04:04:55;;;;;;;31.63;19.80;;;;;;;;;;754828;182;919230;-65
2021/08/15 04:07:21;;;;;;;28.60;19.48;;;;;;;;;;755195;184;918954;-65
2021/08/15 04:09:47;;;;;;;31.37;19.27;;;;;;;;;;753782;184;919248;-66
2021/08/15 04:12:13;;;;;;;42.60;22.43;;;;;;;;;;752859;184;921004;-65
2021/08/15 04:14:38;;;;;;;32.90;20.50;;;;;;;;;;753719;183;918808;-66
2021/08/15 04:17:04;;;;;;;34.67;17.33;;;;;;;;;;759329;183;1037730;-65
2021/08/15 04:19:30;;;;;;;31.42;20.58;;;;;;;;;;755505;185;921042;-65
2021/08/15 04:21:56;;;;;;;24.63;18.60;;;;;;;;;;756310;181;919238;-65
2021/08/15 04:24:22;;;;;;;30.53;20.03;;;;;;;;;;760070;183;918768;-65
2021/08/15 04:26:48;;;;;;;32.57;20.30;;;;;;;;;;754150;184;919443;-65
2021/08/15 04:29:13;;;;;;;38.33;20.87;;;;;;;;;;755718;184;918883;-65
2021/08/15 04:31:40;;;;;;;33.07;23.13;;;;;;;;;;758574;184;918875;-65
2021/08/15 04:34:05;;;;;;;37.27;21.70;;;;;;;;;;753394;183;921188;-67
2021/08/15 04:36:31;;;;;;;39.33;24.02;;;;;;;;;;753919;184;915482;-65
2021/08/15 04:38:57;;;;;;;35.50;25.50;;;;;;;;;;753213;181;916606;-65
2021/08/15 04:41:23;;;;;;;27.97;22.50;;;;;;;;;;760993;181;916509;-64
2021/08/15 04:43:50;;;;;;;38.50;26.70;;;;;;;;;;759074;180;920465;-65
2021/08/15 04:46:14;;;;;;;40.80;27.87;;;;;;;;;;756920;181;914791;-65
2021/08/15 04:48:40;;;;;;;48.17;27.58;;;;;;;;;;758641;184;915742;-65
2021/08/15 04:51:06;;;;;;;45.43;32.00;;;;;;;;;;755355;182;915939;-65
2021/08/15 04:53:32;;;;;;;46.80;29.80;;;;;;;;;;753609;182;915522;-65
2021/08/15 04:55:58;;;;;;;49.35;32.22;;;;;;;;;;759427;181;915421;-65
2021/08/15 04:58:24;;;;;;;63.77;35.00;;;;;;;;;;756420;184;913369;-65
2021/08/15 05:00:49;;;;;;;56.33;35.25;;;;;;;;;;757743;184;919983;-64
2021/08/15 05:03:15;;;;;;;60.00;38.00;;;;;;;;;;756089;183;914767;-64
2021/08/15 05:05:42;;;;;;;58.00;36.53;;;;;;;;;;755472;184;916852;-64
2021/08/15 05:08:08;;;;;;;59.40;37.90;;;;;;;;;;754711;184;916752;-64
2021/08/15 05:10:33;;;;;;;61.73;41.37;;;;;;;;;;757068;184;918564;-65
2021/08/15 05:12:59;;;;;;;61.67;40.90;;;;;;;;;;759157;184;914924;-65
2021/08/15 05:15:25;;;;;;;64.30;42.00;;;;;;;;;;755001;183;921214;-64
2021/08/15 05:17:51;;;;;;;68.70;43.37;;;;;;;;;;754115;181;921047;-65
2021/08/15 05:20:17;;;;;;;71.17;42.67;;;;;;;;;;759662;181;915684;-65
2021/08/15 05:22:43;;;;;;;70.00;44.47;;;;;;;;;;755995;183;922050;-64
2021/08/15 05:25:09;;;;;;;74.05;45.78;;;;;;;;;;754106;183;1010871;-64
2021/08/15 05:27:35;;;;;;;78.10;48.80;;;;;;;;;;759086;183;917457;-64
2021/08/15 05:30:01;;;;;;;84.33;48.87;;;;;;;;;;762428;183;1022580;-65
2021/08/15 05:32:28;;;;;;;79.87;50.43;;;;;;;;;;754517;183;920052;-64
2021/08/15 05:34:53;;;;;;;75.33;50.53;;;;;;;;;;753083;182;919854;-64
2021/08/15 05:37:19;;;;;;;70.40;48.70;;;;;;;;;;759672;184;918746;-64
2021/08/15 05:39:45;;;;;;;73.80;49.80;;;;;;;;;;753461;184;918981;-64
2021/08/15 05:42:10;;;;;;;75.60;48.60;;;;;;;;;;754698;184;918131;-64
2021/08/15 05:44:36;;;;;;;73.93;50.77;;;;;;;;;;759110;184;918451;-65
2021/08/15 05:47:04;;;;;;;79.40;49.30;;;;;;;;;;754873;184;918468;-65
2021/08/15 05:49:28;;;;;;;69.37;46.93;;;;;;;;;;753530;182;919410;-65
2021/08/15 05:51:54;;;;;;;61.60;42.10;;;;;;;;;;758384;184;919291;-65
2021/08/15 05:54:20;;;;;;;61.90;44.63;;;;;;;;;;754390;184;918666;-65
2021/08/15 05:56:46;;;;;;;56.87;41.30;;;;;;;;;;753663;184;919280;-64
2021/08/15 05:59:12;;;;;;;56.63;41.67;;;;;;;;;;753072;184;919826;-66
2021/08/15 06:01:38;;;;;;;58.37;44.27;;;;;;;;;;760783;184;918422;-66
2021/08/15 06:04:03;;;;;;;56.60;39.63;;;;;;;;;;755672;184;919325;-66
2021/08/15 06:06:29;;;;;;;51.45;36.55;;;;;;;;;;754143;184;918418;-66
2021/08/15 06:08:55;;;;;;;46.90;38.67;;;;;;;;;;760207;182;919174;-66
2021/08/15 06:11:21;;;;;;;48.83;33.50;;;;;;;;;;757789;183;918148;-66
2021/08/15 06:13:48;;;;;;;41.80;34.03;;;;;;;;;;755996;183;919277;-66
2021/08/15 06:16:13;;;;;;;47.53;33.50;;;;;;;;;;759192;183;922051;-66
2021/08/15 06:18:38;;;;;;;38.20;31.37;;;;;;;;;;753824;184;918584;-67
2021/08/15 06:21:04;;;;;;;41.30;32.40;;;;;;;;;;756241;183;919068;-68
2021/08/15 06:23:30;;;;;;;39.43;29.87;;;;;;;;;;754603;183;918760;-66
2021/08/15 06:25:57;;;;;;;33.70;30.10;;;;;;;;;;762981;182;918517;-68
2021/08/15 06:28:22;;;;;;;30.13;26.90;;;;;;;;;;752496;184;1122691;-66
2021/08/15 06:30:48;;;;;;;30.70;25.47;;;;;;;;;;753753;183;918371;-68
2021/08/15 06:33:13;;;;;;;27.87;24.83;;;;;;;;;;759396;183;1061436;-68
2021/08/15 06:35:39;;;;;;;25.20;22.47;;;;;;;;;;755646;184;919557;-67
2021/08/15 06:38:05;;;;;;;25.40;22.70;;;;;;;;;;754725;184;1021133;-67
2021/08/15 06:40:31;;;;;;;24.43;19.47;;;;;;;;;;758423;183;1124825;-67
2021/08/15 06:43:03;;;;;;;24.47;19.63;;;;;;;;;;754648;183;919073;-67
2021/08/15 06:45:29;;;;;;;33.70;23.17;;;;;;;;;;755265;184;918948;-67
2021/08/15 06:47:54;;;;;;;22.97;19.27;;;;;;;;;;754391;181;918103;-67
2021/08/15 06:50:20;;;;;;;33.43;21.40;;;;;;;;;;759284;184;918661;-68
2021/08/15 06:52:46;;;;;;;23.37;18.07;;;;;;;;;;749784;184;919046;-69
2021/08/15 06:55:12;;;;;;;27.70;18.50;;;;;;;;;;751254;182;919599;-68
2021/08/15 06:57:38;;;;;;;24.77;18.37;;;;;;;;;;761464;184;631012;-69
2021/08/15 07:00:04;;;;;;;24.07;17.97;;;;;;;;;;758991;184;634998;-68
2021/08/15 07:02:30;;;;;;;23.75;18.10;;;;;;;;;;756564;183;918938;-67
2021/08/15 07:04:56;;;;;;;23.73;18.03;;;;;;;;;;758325;184;918590;-69
2021/08/15 07:07:22;;;;;;;20.13;18.07;;;;;;;;;;753923;184;920273;-69
2021/08/15 07:09:47;;;;;;;21.13;18.10;;;;;;;;;;754491;184;919673;-69
2021/08/15 07:12:13;;;;;;;24.20;18.00;;;;;;;;;;758710;184;629168;-69
2021/08/15 07:14:42;;;;;;;29.93;19.87;;;;;;;;;;755675;184;867412;-67
2021/08/15 07:17:05;;;;;;;20.30;16.83;;;;;;;;;;758335;183;613578;-68
2021/08/15 07:19:31;;;;;;;18.27;15.13;;;;;;;;;;757727;184;627482;-68
2021/08/15 07:21:57;;;;;;;21.83;18.13;;;;;;;;;;764005;182;916084;-68
2021/08/15 07:24:23;;;;;;;22.30;15.77;;;;;;;;;;757476;183;916743;-67
2021/08/15 07:26:48;;;;;;;24.20;14.73;;;;;;;;;;756872;183;915111;-69
2021/08/15 07:29:14;;;;;;;17.50;14.40;;;;;;;;;;755390;183;1835656;-69
2021/08/15 07:31:40;;;;;;;25.73;15.00;;;;;;;;;;754959;184;927262;-68
2021/08/15 07:34:06;;;;;;;20.10;15.03;;;;;;;;;;754506;182;915594;-67
2021/08/15 07:36:32;;;;;;;20.40;15.37;;;;;;;;;;760432;183;940225;-68
2021/08/15 07:38:58;;;;;;;17.33;14.43;;;;;;;;;;753958;183;919066;-67
2021/08/15 07:41:23;;;;;;;18.80;13.10;;;;;;;;;;756375;183;917539;-68
2021/08/15 07:43:49;;;;;;;15.60;13.17;;;;;;;;;;753523;184;919609;-66
2021/08/15 07:46:15;;;;;;;20.10;13.57;;;;;;;;;;761866;183;919041;-66
2021/08/15 07:48:41;;;;;;;14.83;13.23;;;;;;;;;;756487;183;918793;-67
2021/08/15 07:51:07;;;;;;;19.23;14.15;;;;;;;;;;755470;182;929669;-68
2021/08/15 07:53:33;;;;;;;16.93;14.70;;;;;;;;;;761080;183;917140;-67
2021/08/15 07:55:59;;;;;;;16.73;13.90;;;;;;;;;;758857;184;650582;-68
2021/08/15 07:58:24;;;;;;;16.17;13.60;;;;;;;;;;755407;182;902449;-68
2021/08/15 08:00:50;;;;;;;23.50;12.57;;;;;;;;;;758766;182;916990;-68
2021/08/15 08:03:16;;;;;;;15.80;12.90;;;;;;;;;;756761;181;923419;-69
2021/08/15 08:05:42;;;;;;;21.25;13.07;;;;;;;;;;754091;184;916478;-68
2021/08/15 08:08:08;;;;;;;20.10;13.50;;;;;;;;;;755927;184;919985;-68
2021/08/15 08:10:34;;;;;;;20.90;13.80;;;;;;;;;;745913;188;918461;-69
2021/08/15 08:13:00;;;;;;;21.20;13.03;;;;;;;;;;755934;184;914069;-68
2021/08/15 08:15:26;;;;;;;14.77;12.50;;;;;;;;;;756462;181;932186;-67
2021/08/15 08:17:51;;;;;;;15.70;13.83;;;;;;;;;;762550;184;634940;-67
2021/08/15 08:20:18;;;;;;;15.87;12.30;;;;;;;;;;757230;181;899331;-67
2021/08/15 08:22:43;;;;;;;18.47;12.97;;;;;;;;;;754566;184;919438;-67
2021/08/15 08:25:09;;;;;;;17.30;10.77;;;;;;;;;;759220;184;918680;-68
2021/08/15 08:27:35;;;;;;;14.90;11.40;;;;;;;;;;754595;184;1019118;-67
2021/08/15 08:30:01;;;;;;;16.17;12.68;;;;;;;;;;753651;184;919007;-68
2021/08/15 08:32:27;;;;;;;12.80;10.83;;;;;;;;;;755341;183;919270;-67
2021/08/15 08:34:53;;;;;;;22.73;12.80;;;;;;;;;;763063;181;918816;-68
2021/08/15 08:37:19;;;;;;;13.83;11.93;;;;;;;;;;753907;183;926256;-67
2021/08/15 08:39:44;;;;;;;13.43;11.20;;;;;;;;;;756421;181;919471;-68
2021/08/15 08:42:10;;;;;;;16.47;12.60;;;;;;;;;;760842;183;918062;-67
2021/08/15 08:44:36;;;;;;;14.27;11.60;;;;;;;;;;758340;181;917965;-69
2021/08/15 08:47:05;;;;;;;15.20;11.13;;;;;;;;;;756566;183;918858;-67
2021/08/15 08:49:31;;;;;;;21.60;10.70;;;;;;;;;;761344;182;909217;-68
2021/08/15 08:51:57;;;;;;;15.20;11.27;;;;;;;;;;758005;183;918752;-69
2021/08/15 08:54:22;;;;;;;17.37;11.90;;;;;;;;;;755005;182;918528;-68
2021/08/15 08:56:48;;;;;;;13.27;11.97;;;;;;;;;;754445;183;1123210;-69
2021/08/15 08:59:14;;;;;;;13.13;11.10;;;;;;;;;;757404;184;927545;-67
2021/08/15 09:01:41;;;;;;;13.70;10.90;;;;;;;;;;752878;183;924735;-69
2021/08/15 09:04:07;;;;;;;13.47;9.83;;;;;;;;;;758350;182;646958;-70
2021/08/15 09:06:33;;;;;;;15.20;10.60;;;;;;;;;;762965;184;618353;-68
2021/08/15 09:08:58;;;;;;;12.63;10.03;;;;;;;;;;759033;184;632067;-69
2021/08/15 09:11:24;;;;;;;13.50;9.73;;;;;;;;;;757616;184;627828;-69
2021/08/15 09:13:56;;;;;;;11.83;10.20;;;;;;;;;;761510;184;619223;-69
2021/08/15 09:16:22;;;;;;;14.43;9.63;;;;;;;;;;753423;184;626581;-69
2021/08/15 09:18:48;;;;;;;10.40;9.00;;;;;;;;;;758210;182;633949;-70
2021/08/15 09:21:13;;;;;;;10.43;9.40;;;;;;;;;;758751;184;633746;-69
2021/08/15 09:23:40;;;;;;;10.50;9.40;;;;;;;;;;760522;184;629557;-70
2021/08/15 09:26:19;;;;;;;18.83;10.07;;;;;;;;;;759356;184;613153;-70
2021/08/15 09:28:45;;;;;;;9.60;8.47;;;;;;;;;;759105;182;625627;-70
2021/08/15 09:31:15;;;;;;;10.80;9.03;;;;;;;;;;757172;184;919080;-71
2021/08/15 09:33:41;;;;;;;12.87;9.57;;;;;;;;;;761759;184;617708;-71
2021/08/15 09:36:06;;;;;;;13.27;9.73;;;;;;;;;;756674;184;813618;-73
2021/08/15 09:38:32;;;;;;;10.70;9.60;;;;;;;;;;757237;184;619492;-70
2021/08/15 09:40:58;;;;;;;11.60;8.30;;;;;;;;;;757920;184;621920;-71
2021/08/15 09:43:24;;;;;;;12.47;9.37;;;;;;;;;;764149;184;615810;-69
2021/08/15 09:45:51;;;;;;;12.27;7.87;;;;;;;;;;762016;184;634894;-70
2021/08/15 09:48:17;;;;;;;10.17;7.97;;;;;;;;;;760327;182;621348;-70
2021/08/15 09:50:43;;;;;;;17.53;9.57;;;;;;;;;;764107;183;617199;-71
2021/08/15 09:53:09;;;;;;;15.30;7.87;;;;;;;;;;752609;183;640367;-72
2021/08/15 09:55:41;;;;;;;10.57;8.00;;;;;;;;;;755983;184;650392;-70
2021/08/15 09:58:12;;;;;;;13.33;7.70;;;;;;;;;;757849;183;633633;-71
2021/08/15 10:00:38;;;;;;;17.03;8.17;;;;;;;;;;762387;183;916345;-71
2021/08/15 10:03:04;;;;;;;10.23;6.93;;;;;;;;;;760170;183;651084;-72
2021/08/15 10:05:30;;;;;;;10.30;8.20;;;;;;;;;;759173;183;619933;-73
2021/08/15 10:07:56;;;;;;;9.87;6.80;;;;;;;;;;762797;183;617396;-74
2021/08/15 10:10:22;;;;;;;11.43;6.97;;;;;;;;;;759499;181;631913;-72
2021/08/15 10:12:47;;;;;;;9.23;7.20;;;;;;;;;;756807;182;863215;-70
2021/08/15 10:15:13;;;;;;;11.93;8.13;;;;;;;;;;757584;183;883138;-68
2021/08/15 10:17:39;;;;;;;8.90;7.73;;;;;;;;;;763425;183;631361;-70
2021/08/15 10:20:05;;;;;;;10.73;8.47;;;;;;;;;;757876;181;618369;-70
2021/08/15 10:22:31;;;;;;;14.93;8.10;;;;;;;;;;756959;182;717873;-69
2021/08/15 10:24:57;;;;;;;8.77;7.13;;;;;;;;;;762547;184;638388;-70
2021/08/15 10:27:28;;;;;;;9.30;6.80;;;;;;;;;;758346;184;617896;-68
2021/08/15 10:29:57;;;;;;;12.30;7.17;;;;;;;;;;759489;184;623862;-69
2021/08/15 10:32:20;;;;;;;8.67;6.50;;;;;;;;;;758172;184;624191;-67
2021/08/15 10:35:05;;;;;;;9.37;7.43;;;;;;;;;;761267;183;641428;-70
2021/08/15 10:37:33;;;;;;;14.27;7.97;;;;;;;;;;757858;184;617827;-68
2021/08/15 10:40:03;;;;;;;10.67;7.57;;;;;;;;;;758264;182;630186;-67
2021/08/15 10:42:35;;;;;;;8.20;6.53;;;;;;;;;;756016;183;843107;-68
2021/08/15 10:45:00;;;;;;;11.23;7.60;;;;;;;;;;757450;184;646414;-70
2021/08/15 10:47:26;;;;;;;8.50;6.33;;;;;;;;;;763141;184;617701;-68
2021/08/15 10:49:53;;;;;;;12.17;6.60;;;;;;;;;;758444;184;636765;-69
2021/08/15 10:52:26;;;;;;;10.17;6.63;;;;;;;;;;759248;181;623849;-69
2021/08/15 10:54:59;;;;;;;9.37;6.60;;;;;;;;;;759032;184;630351;-68
2021/08/15 10:57:26;;;;;;;8.13;6.87;;;;;;;;;;762362;181;635038;-68
2021/08/15 10:59:52;;;;;;;9.13;7.00;;;;;;;;;;758624;183;644998;-68
2021/08/15 11:02:18;;;;;;;10.07;7.07;;;;;;;;;;755158;184;636519;-69
2021/08/15 11:04:50;;;;;;;13.20;6.63;;;;;;;;;;761400;183;620345;-69
2021/08/15 11:07:16;;;;;;;10.60;7.20;;;;;;;;;;757723;184;918239;-68
2021/08/15 11:09:47;;;;;;;10.67;7.43;;;;;;;;;;757971;183;919049;-68
2021/08/15 11:12:13;;;;;;;9.57;6.83;;;;;;;;;;758852;183;639720;-69
2021/08/15 11:14:39;;;;;;;12.10;6.57;;;;;;;;;;762569;182;625496;-69
2021/08/15 11:17:10;;;;;;;7.80;6.23;;;;;;;;;;755525;182;625942;-70
2021/08/15 11:19:36;;;;;;;9.77;7.00;;;;;;;;;;757616;181;783106;-69
2021/08/15 11:22:02;;;;;;;34.47;16.20;;;;;;;;;;756494;183;681507;-68
2021/08/15 11:24:28;;;;;;;17.57;8.93;;;;;;;;;;763755;183;660922;-68
2021/08/15 11:26:54;;;;;;;17.97;9.87;;;;;;;;;;756372;183;1079325;-70
2021/08/15 11:29:20;;;;;;;11.60;7.10;;;;;;;;;;759199;183;636774;-69
2021/08/15 11:31:46;;;;;;;12.40;6.90;;;;;;;;;;760992;184;621587;-69
2021/08/15 11:34:12;;;;;;;11.67;7.67;;;;;;;;;;758660;182;646432;-71
2021/08/15 11:36:38;;;;;;;18.03;8.87;;;;;;;;;;757908;184;919357;-70
2021/08/15 11:39:06;;;;;;;9.30;6.57;;;;;;;;;;758063;184;623118;-71
2021/08/15 11:41:30;;;;;;;129.80;33.43;;;;;;;;;;758320;184;919077;-68
2021/08/15 11:43:55;;;;;;;12.03;7.67;;;;;;;;;;758725;184;627316;-70
2021/08/15 11:46:21;;;;;;;8.87;7.37;;;;;;;;;;755892;181;917379;-72
2021/08/15 11:48:47;;;;;;;8.50;7.57;;;;;;;;;;762067;184;636654;-69
2021/08/15 11:51:13;;;;;;;13.10;7.50;;;;;;;;;;758955;184;635893;-70
2021/08/15 11:53:39;;;;;;;226.47;58.37;;;;;;;;;;758919;181;647201;-70
2021/08/15 11:56:08;;;;;;;13.23;8.40;;;;;;;;;;761110;184;666089;-70
2021/08/15 11:58:35;;;;;;;8.90;7.33;;;;;;;;;;757536;184;637185;-71
2021/08/15 12:01:06;;;;;;;17.40;9.70;;;;;;;;;;757511;181;630809;-70
2021/08/15 12:03:31;;;;;;;13.80;6.93;;;;;;;;;;757490;181;628920;-70
2021/08/15 12:05:57;;;;;;;13.73;7.80;;;;;;;;;;763236;181;632892;-71
2021/08/15 12:08:28;;;;;;;12.60;7.53;;;;;;;;;;761385;183;629519;-69
2021/08/15 12:10:54;;;;;;;10.30;7.40;;;;;;;;;;759651;182;625532;-70
2021/08/15 12:13:20;;;;;;;12.40;8.17;;;;;;;;;;759512;184;638630;-69
2021/08/15 12:15:46;;;;;;;24.93;12.43;;;;;;;;;;763483;184;618334;-71
2021/08/15 12:18:18;;;;;;;16.47;8.07;;;;;;;;;;759917;183;625059;-70
2021/08/15 12:20:43;;;;;;;44.10;17.53;;;;;;;;;;759968;183;638143;-70
2021/08/15 12:23:09;;;;;;;16.93;9.60;;;;;;;;;;763237;183;619517;-70
2021/08/15 12:25:35;;;;;;;10.70;7.50;;;;;;;;;;760063;183;627679;-72
2021/08/15 12:28:06;;;;;;;14.30;9.10;;;;;;;;;;758037;181;629021;-72
2021/08/15 12:30:32;;;;;;;11.20;7.73;;;;;;;;;;758851;183;629313;-72
2021/08/15 12:32:59;;;;;;;9.33;7.20;;;;;;;;;;763122;181;782326;-72
2021/08/15 12:35:25;;;;;;;13.30;8.43;;;;;;;;;;759808;184;625322;-72
2021/08/15 12:37:50;;;;;;;12.67;7.90;;;;;;;;;;761783;183;645926;-71
2021/08/15 12:40:16;;;;;;;10.10;7.40;;;;;;;;;;760823;181;922081;-73
2021/08/15 12:42:43;;;;;;;7.97;7.13;;;;;;;;;;733548;188;647293;-72
2021/08/15 12:45:08;;;;;;;11.23;7.37;;;;;;;;;;752868;184;629512;-73
2021/08/15 12:47:34;;;;;;;13.23;7.47;;;;;;;;;;757907;184;632727;-72
2021/08/15 12:50:04;;;;;;;10.63;9.00;;;;;;;;;;762661;183;625553;-72
2021/08/15 12:52:30;;;;;;;8.27;7.37;;;;;;;;;;757946;185;628760;-70
2021/08/15 12:55:01;;;;;;;9.17;7.53;;;;;;;;;;757302;184;645447;-71
2021/08/15 12:57:27;;;;;;;9.60;7.70;;;;;;;;;;757191;184;635972;-67
2021/08/15 12:59:52;;;;;;;11.60;7.80;;;;;;;;;;762975;183;629531;-68
2021/08/15 13:02:18;;;;;;;9.20;7.00;;;;;;;;;;758336;184;661983;-70
2021/08/15 13:04:44;;;;;;;9.83;7.57;;;;;;;;;;760206;184;623829;-70
2021/08/15 13:07:10;;;;;;;9.90;7.50;;;;;;;;;;761311;184;620163;-71
2021/08/15 13:09:36;;;;;;;9.73;6.90;;;;;;;;;;758083;182;638382;-69
2021/08/15 13:12:02;;;;;;;10.80;7.83;;;;;;;;;;757273;184;641092;-69
2021/08/15 13:14:27;;;;;;;12.17;7.47;;;;;;;;;;762533;184;629324;-70
2021/08/15 13:16:56;;;;;;;13.17;8.87;;;;;;;;;;758527;184;636974;-70
2021/08/15 13:19:19;;;;;;;12.00;7.90;;;;;;;;;;760030;182;635871;-69
2021/08/15 13:21:45;;;;;;;9.00;8.10;;;;;;;;;;760020;183;624991;-70
2021/08/15 13:24:11;;;;;;;11.43;6.87;;;;;;;;;;760185;183;634218;-68
2021/08/15 13:26:37;;;;;;;11.40;7.53;;;;;;;;;;760086;182;637134;-70
2021/08/15 13:29:02;;;;;;;17.50;7.20;;;;;;;;;;760329;183;623533;-67
2021/08/15 13:31:28;;;;;;;11.37;6.73;;;;;;;;;;763864;182;617884;-67
2021/08/15 13:33:54;;;;;;;11.00;6.57;;;;;;;;;;761039;183;645956;-71
2021/08/15 13:36:20;;;;;;;15.60;7.30;;;;;;;;;;760816;181;636413;-68
2021/08/15 13:38:46;;;;;;;16.87;8.27;;;;;;;;;;762255;181;873781;-70
2021/08/15 13:41:12;;;;;;;8.27;7.07;;;;;;;;;;760225;183;619034;-69
2021/08/15 13:43:37;;;;;;;9.80;8.50;;;;;;;;;;759317;184;625762;-69
2021/08/15 13:46:03;;;;;;;10.87;6.93;;;;;;;;;;763914;181;618900;-69
2021/08/15 13:48:29;;;;;;;8.70;6.80;;;;;;;;;;759772;181;627177;-67
2021/08/15 13:50:55;;;;;;;13.23;7.53;;;;;;;;;;758992;183;634773;-69
2021/08/15 13:53:21;;;;;;;12.20;7.43;;;;;;;;;;758517;183;632738;-68
2021/08/15 13:55:47;;;;;;;10.03;6.83;;;;;;;;;;762547;184;620981;-69
2021/08/15 13:58:14;;;;;;;9.20;7.00;;;;;;;;;;759951;181;618936;-68
2021/08/15 14:00:38;;;;;;;10.63;7.67;;;;;;;;;;758266;184;616506;-69
2021/08/15 14:03:04;;;;;;;9.27;7.10;;;;;;;;;;760812;184;647146;-68